createdAt,value
2018-11-03T00:00:27.521Z,19.53
2018-11-03T00:02:55.214Z,16.63
2018-11-03T00:05:22.822Z,16.97
2018-11-03T00:07:50.507Z,18.43
2018-11-03T00:10:33.890Z,19.03
2018-11-03T00:13:01.510Z,17.70
2018-11-03T00:15:29.182Z,16.70
2018-11-03T00:17:56.862Z,17.67
2018-11-03T00:20:24.499Z,18.03
2018-11-03T00:22:52.137Z,28.63
2018-11-03T00:25:19.784Z,20.20
2018-11-03T00:27:47.453Z,19.77
2018-11-03T00:30:15.100Z,23.90
2018-11-03T00:32:42.766Z,21.93
2018-11-03T00:35:10.710Z,20.93
2018-11-03T00:37:38.337Z,20.90
2018-11-03T00:40:09.188Z,20.53
2018-11-03T00:42:37.877Z,23.73
2018-11-03T00:45:06.570Z,22.60
2018-11-03T00:47:34.254Z,25.80
2018-11-03T00:50:01.923Z,23.93
2018-11-03T00:52:29.568Z,22.93
2018-11-03T00:54:57.154Z,21.07
2018-11-03T00:57:24.838Z,27.33
2018-11-03T00:59:52.447Z,23.27
2018-11-03T01:02:22.918Z,24.03
2018-11-03T01:04:50.465Z,22.90
2018-11-03T01:07:18.106Z,23.93
2018-11-03T01:09:45.777Z,19.60
2018-11-03T01:12:13.444Z,19.03
2018-11-03T01:14:41.036Z,21.07
2018-11-03T01:17:08.715Z,21.63
2018-11-03T01:19:36.365Z,20.03
2018-11-03T01:22:04.103Z,18.77
2018-11-03T01:24:31.688Z,23.93
2018-11-03T01:26:59.361Z,27.47
2018-11-03T01:29:26.977Z,23.73
2018-11-03T01:31:54.612Z,21.80
2018-11-03T01:34:22.215Z,24.20
2018-11-03T01:36:49.882Z,22.13
2018-11-03T01:39:17.563Z,23.63
2018-11-03T01:41:45.173Z,21.63
2018-11-03T01:44:12.853Z,22.07
2018-11-03T01:46:40.502Z,21.13
2018-11-03T01:49:08.137Z,25.17
2018-11-03T01:51:35.723Z,26.73
2018-11-03T01:54:03.306Z,24.47
2018-11-03T01:56:30.936Z,27.17
2018-11-03T01:58:58.533Z,25.97
2018-11-03T02:01:26.167Z,27.50
2018-11-03T02:03:53.806Z,27.33
2018-11-03T02:06:21.486Z,28.87
2018-11-03T02:08:49.051Z,35.53
2018-11-03T02:11:16.697Z,28.13
2018-11-03T02:13:44.340Z,28.00
2018-11-03T02:16:12.034Z,29.70
2018-11-03T02:18:39.671Z,29.37
2018-11-03T02:21:10.452Z,32.23
2018-11-03T02:23:38.078Z,28.70
2018-11-03T02:26:05.715Z,28.53
2018-11-03T02:28:33.307Z,32.93
2018-11-03T02:31:00.845Z,29.10
2018-11-03T02:33:28.429Z,33.47
2018-11-03T02:35:56.030Z,29.87
2018-11-03T02:38:23.654Z,31.23
2018-11-03T02:40:51.263Z,34.90
2018-11-03T02:43:18.954Z,30.53
2018-11-03T02:45:46.611Z,30.07
2018-11-03T02:48:14.227Z,36.57
2018-11-03T02:50:41.799Z,32.17
2018-11-03T02:53:09.422Z,34.83
2018-11-03T02:55:36.995Z,34.03
2018-11-03T02:58:04.884Z,34.13
2018-11-03T03:00:32.478Z,30.50
2018-11-03T03:03:00.182Z,41.57
2018-11-03T03:05:27.778Z,35.73
2018-11-03T03:07:55.420Z,35.43
2018-11-03T03:10:23.014Z,31.60
2018-11-03T03:12:50.542Z,32.73
2018-11-03T03:15:18.240Z,36.00
2018-11-03T03:17:45.974Z,33.43
2018-11-03T03:20:13.643Z,30.23
2018-11-03T03:22:41.280Z,30.50
2018-11-03T03:25:09.936Z,39.87
2018-11-03T03:27:37.599Z,29.93
2018-11-03T03:30:05.341Z,35.80
2018-11-03T03:32:32.987Z,34.40
2018-11-03T03:35:00.602Z,30.53
2018-11-03T03:37:28.185Z,30.20
2018-11-03T03:39:55.721Z,33.67
2018-11-03T03:42:23.359Z,34.17
2018-11-03T03:44:50.986Z,34.00
2018-11-03T03:47:18.615Z,34.67
2018-11-03T03:49:46.276Z,33.57
2018-11-03T03:52:13.852Z,31.17
2018-11-03T03:54:41.489Z,34.10
2018-11-03T03:57:09.083Z,31.33
2018-11-03T03:59:36.611Z,34.60
2018-11-03T04:02:04.361Z,31.73
2018-11-03T04:04:32.055Z,31.83
2018-11-03T04:06:59.673Z,35.10
2018-11-03T04:09:27.331Z,31.17
2018-11-03T04:11:54.943Z,32.17
2018-11-03T04:14:22.538Z,36.10
2018-11-03T04:16:50.367Z,35.83
2018-11-03T04:19:17.991Z,35.97
2018-11-03T04:21:45.620Z,35.50
2018-11-03T04:24:13.270Z,31.93
2018-11-03T04:26:40.855Z,31.43
2018-11-03T04:29:08.474Z,29.43
2018-11-03T04:31:36.012Z,29.67
2018-11-03T04:34:03.804Z,33.07
2018-11-03T04:36:31.481Z,40.33
2018-11-03T04:38:59.105Z,33.00
2018-11-03T04:41:26.742Z,32.73
2018-11-03T04:43:54.340Z,27.93
2018-11-03T04:46:21.978Z,31.07
2018-11-03T04:48:54.144Z,32.77
2018-11-03T04:51:21.761Z,32.20
2018-11-03T04:53:49.290Z,33.13
2018-11-03T04:56:16.939Z,33.93
2018-11-03T04:58:44.587Z,30.07
2018-11-03T05:01:12.202Z,34.03
2018-11-03T05:03:39.826Z,31.70
2018-11-03T05:06:07.447Z,27.87
2018-11-03T05:08:35.052Z,29.33
2018-11-03T05:11:02.636Z,36.00
2018-11-03T05:13:30.288Z,31.73
2018-11-03T05:15:57.896Z,30.83
2018-11-03T05:18:25.666Z,31.50
2018-11-03T05:20:53.237Z,30.53
2018-11-03T05:23:20.880Z,33.03
2018-11-03T05:25:48.448Z,30.23
2018-11-03T05:28:16.074Z,31.63
2018-11-03T05:30:43.654Z,31.33
2018-11-03T05:33:11.226Z,29.10
2018-11-03T05:35:38.746Z,32.50
2018-11-03T05:38:06.531Z,31.67
2018-11-03T05:40:34.168Z,31.33
2018-11-03T05:43:01.825Z,26.27
2018-11-03T05:45:29.481Z,26.40
2018-11-03T05:47:57.383Z,28.60
2018-11-03T05:50:24.963Z,30.87
2018-11-03T05:52:52.588Z,29.47
2018-11-03T05:55:20.133Z,28.40
2018-11-03T05:57:47.739Z,28.57
2018-11-03T06:00:15.287Z,30.00
2018-11-03T06:02:42.902Z,29.93
2018-11-03T06:05:10.511Z,34.53
2018-11-03T06:07:38.106Z,31.80
2018-11-03T06:10:06.329Z,30.20
2018-11-03T06:12:33.884Z,29.30
2018-11-03T06:15:01.442Z,33.17
2018-11-03T06:17:28.997Z,28.77
2018-11-03T06:19:56.566Z,27.67
2018-11-03T06:22:24.189Z,27.20
2018-11-03T06:24:51.715Z,30.17
2018-11-03T06:27:19.372Z,30.07
2018-11-03T06:29:46.945Z,26.57
2018-11-03T06:32:14.589Z,34.37
2018-11-03T06:34:42.126Z,26.17
2018-11-03T06:37:09.761Z,29.70
2018-11-03T06:39:37.339Z,28.73
2018-11-03T06:42:05.351Z,27.80
2018-11-03T06:44:32.906Z,26.43
2018-11-03T06:47:00.566Z,30.67
2018-11-03T06:49:28.148Z,33.00
2018-11-03T06:51:55.739Z,26.87
2018-11-03T06:54:23.316Z,28.57
2018-11-03T06:56:50.942Z,28.27
2018-11-03T06:59:18.741Z,25.77
2018-11-03T07:01:46.331Z,31.27
2018-11-03T07:04:14.317Z,26.67
2018-11-03T07:06:42.440Z,25.17
2018-11-03T07:09:11.577Z,26.30
2018-11-03T07:11:39.865Z,27.97
2018-11-03T07:14:07.597Z,30.57
2018-11-03T07:16:35.317Z,29.47
2018-11-03T07:19:02.900Z,29.37
2018-11-03T07:21:30.533Z,26.63
2018-11-03T07:23:58.100Z,29.80
2018-11-03T07:26:25.687Z,25.53
2018-11-03T07:28:53.671Z,28.00
2018-11-03T07:31:21.420Z,26.40
2018-11-03T07:33:49.231Z,29.87
2018-11-03T07:36:16.751Z,24.60
2018-11-03T07:38:44.524Z,28.30
2018-11-03T07:41:12.480Z,26.93
2018-11-03T07:43:40.081Z,32.60
2018-11-03T07:46:07.782Z,23.97
2018-11-03T07:48:35.583Z,25.50
2018-11-03T07:51:03.101Z,29.10
2018-11-03T07:53:31.983Z,28.40
2018-11-03T07:55:59.706Z,27.47
2018-11-03T07:58:27.382Z,26.33
2018-11-03T08:00:55.122Z,30.57
2018-11-03T08:03:22.713Z,22.13
2018-11-03T08:05:50.334Z,27.97
2018-11-03T08:08:17.941Z,24.93
2018-11-03T08:10:45.562Z,30.13
2018-11-03T08:13:13.141Z,26.87
2018-11-03T08:15:40.749Z,25.67
2018-11-03T08:18:08.306Z,22.53
2018-11-03T08:20:35.892Z,27.33
2018-11-03T08:23:03.532Z,24.63
2018-11-03T08:25:31.133Z,24.83
2018-11-03T08:27:58.780Z,24.03
2018-11-03T08:30:27.002Z,24.50
2018-11-03T08:32:54.605Z,25.80
2018-11-03T08:35:22.127Z,27.80
2018-11-03T08:37:49.810Z,21.80
2018-11-03T08:40:17.512Z,22.83
2018-11-03T08:42:45.924Z,27.37
2018-11-03T08:45:14.567Z,20.40
2018-11-03T08:47:42.638Z,25.47
2018-11-03T08:50:11.217Z,26.43
2018-11-03T08:52:38.984Z,21.57
2018-11-03T08:55:07.899Z,22.20
2018-11-03T08:57:35.411Z,22.23
2018-11-03T09:00:04.099Z,27.67
2018-11-03T09:02:31.718Z,25.77
2018-11-03T09:04:59.413Z,22.40
2018-11-03T09:07:27.009Z,23.17
2018-11-03T09:09:54.851Z,24.03
2018-11-03T09:12:22.478Z,23.13
2018-11-03T09:14:50.123Z,22.50
2018-11-03T09:17:17.715Z,24.97
2018-11-03T09:19:45.278Z,26.37
2018-11-03T09:22:12.852Z,26.47
2018-11-03T09:24:40.502Z,26.00
2018-11-03T09:27:08.192Z,23.87
2018-11-03T09:29:35.939Z,26.27
2018-11-03T09:32:03.553Z,21.93
2018-11-03T09:34:31.133Z,26.00
2018-11-03T09:36:58.924Z,23.07
2018-11-03T09:39:27.074Z,23.37
2018-11-03T09:41:54.703Z,25.47
2018-11-03T09:44:22.247Z,19.67
2018-11-03T09:46:49.875Z,23.93
2018-11-03T09:49:17.449Z,23.43
2018-11-03T09:51:45.666Z,23.17
2018-11-03T09:54:13.352Z,22.33
2018-11-03T09:56:40.982Z,22.30
2018-11-03T09:59:08.425Z,23.43
2018-11-03T10:01:35.988Z,19.43
2018-11-03T10:04:04.055Z,20.30
2018-11-03T10:06:32.328Z,20.57
2018-11-03T10:09:00.099Z,21.10
2018-11-03T10:11:27.728Z,24.50
2018-11-03T10:13:55.367Z,23.97
2018-11-03T10:16:22.996Z,22.43
2018-11-03T10:18:50.610Z,21.77
2018-11-03T10:21:18.265Z,19.23
2018-11-03T10:23:45.890Z,21.07
2018-11-03T10:26:13.485Z,22.73
2018-11-03T10:28:41.165Z,19.93
2018-11-03T10:31:08.857Z,23.23
2018-11-03T10:33:36.707Z,23.10
2018-11-03T10:36:04.553Z,23.57
2018-11-03T10:38:33.640Z,18.50
2018-11-03T10:41:01.257Z,21.73
2018-11-03T10:43:28.906Z,35.07
2018-11-03T10:45:56.470Z,21.37
2018-11-03T10:48:24.089Z,24.27
2018-11-03T10:50:51.698Z,22.47
2018-11-03T10:53:19.257Z,21.00
2018-11-03T10:55:46.834Z,22.77
2018-11-03T10:58:14.548Z,20.23
2018-11-03T11:00:47.710Z,21.07
2018-11-03T11:03:20.858Z,23.87
2018-11-03T11:06:55.757Z,19.80
2018-11-03T11:09:29.010Z,21.80
2018-11-03T11:12:02.157Z,19.70
2018-11-03T11:14:29.733Z,21.73
2018-11-03T11:16:57.383Z,24.23
2018-11-03T11:19:24.855Z,20.80
2018-11-03T11:21:52.469Z,21.77
2018-11-03T11:24:20.409Z,21.30
2018-11-03T11:26:47.744Z,20.73
2018-11-03T11:29:15.342Z,22.43
2018-11-03T11:31:42.987Z,18.80
2018-11-03T11:43:20.167Z,21.97
2018-11-03T11:45:47.721Z,21.47
2018-11-03T11:48:15.340Z,21.70
2018-11-03T11:50:42.989Z,18.97
2018-11-03T11:53:10.491Z,21.50
2018-11-03T11:55:38.091Z,19.13
2018-11-03T11:58:05.922Z,24.30
2018-11-03T12:00:33.566Z,19.60
2018-11-03T12:03:01.200Z,20.43
2018-11-03T12:05:28.824Z,22.27
2018-11-03T12:07:56.482Z,21.57
2018-11-03T12:10:24.103Z,19.20
2018-11-03T12:12:51.691Z,27.03
2018-11-03T12:15:19.402Z,21.00
2018-11-03T12:17:47.021Z,23.90
2018-11-03T12:20:14.630Z,19.17
2018-11-03T12:22:42.231Z,24.33
2018-11-03T12:25:10.582Z,23.07
2018-11-03T12:27:38.539Z,19.70
2018-11-03T12:30:08.338Z,19.53
2018-11-03T12:32:36.011Z,20.60
2018-11-03T12:35:03.860Z,22.90
2018-11-03T12:37:31.490Z,19.50
2018-11-03T12:39:59.095Z,21.33
2018-11-03T12:42:27.237Z,19.10
2018-11-03T12:44:54.830Z,19.17
2018-11-03T12:47:22.464Z,24.30
2018-11-03T12:49:54.598Z,19.37
2018-11-03T12:52:22.206Z,26.60
2018-11-03T12:54:49.872Z,20.60
2018-11-03T12:57:17.497Z,19.17
2018-11-03T12:59:45.153Z,23.27
2018-11-03T13:02:12.720Z,20.77
2018-11-03T13:04:40.306Z,17.30
2018-11-03T13:07:07.919Z,20.23
2018-11-03T13:09:35.515Z,19.67
2018-11-03T13:12:03.249Z,24.73
2018-11-03T13:14:30.784Z,18.20
2018-11-03T13:16:58.360Z,23.90
2018-11-03T13:19:25.969Z,21.17
2018-11-03T13:21:53.605Z,21.13
2018-11-03T13:24:21.170Z,20.07
2018-11-03T13:26:48.809Z,20.17
2018-11-03T13:29:16.467Z,22.63
2018-11-03T13:31:44.066Z,19.93
2018-11-03T13:34:11.797Z,17.57
2018-11-03T13:36:39.413Z,20.53
2018-11-03T13:39:07.849Z,21.43
2018-11-03T13:41:35.438Z,23.93
2018-11-03T13:44:03.085Z,20.17
2018-11-03T13:46:30.677Z,20.30
2018-11-03T13:48:58.300Z,24.00
2018-11-03T13:51:25.850Z,17.67
2018-11-03T13:53:53.454Z,18.43
2018-11-03T13:56:21.081Z,17.97
2018-11-03T13:58:48.769Z,19.00
2018-11-03T14:01:16.431Z,18.67
2018-11-03T14:03:44.820Z,20.20
2018-11-03T14:06:12.442Z,20.00
2018-11-03T14:08:40.148Z,20.63
2018-11-03T14:11:07.779Z,17.73
2018-11-03T14:13:35.446Z,20.80
2018-11-03T14:16:03.133Z,21.40
2018-11-03T14:18:30.837Z,19.50
2018-11-03T14:20:58.494Z,22.60
2018-11-03T14:23:26.212Z,20.67
2018-11-03T14:25:53.904Z,22.40
2018-11-03T14:28:21.581Z,19.97
2018-11-03T14:30:50.205Z,18.30
2018-11-03T14:33:17.817Z,19.07
2018-11-03T14:35:45.514Z,19.20
2018-11-03T14:38:13.155Z,20.27
2018-11-03T14:40:40.801Z,19.40
2018-11-03T14:43:08.572Z,27.07
2018-11-03T14:45:36.236Z,25.93
2018-11-03T14:48:03.859Z,16.73
2018-11-03T14:50:32.698Z,18.63
2018-11-03T14:53:00.465Z,19.77
2018-11-03T14:55:28.154Z,16.80
2018-11-03T14:57:55.904Z,20.23
2018-11-03T15:00:23.654Z,19.30
2018-11-03T15:02:51.416Z,18.37
2018-11-03T15:05:20.321Z,17.93
2018-11-03T15:07:47.932Z,18.33
2018-11-03T15:10:15.506Z,17.57
2018-11-03T15:12:44.359Z,18.83
2018-11-03T15:15:13.698Z,20.63
2018-11-03T15:17:41.381Z,18.93
2018-11-03T15:20:10.168Z,18.67
2018-11-03T15:22:37.967Z,23.73
2018-11-03T15:25:06.192Z,19.33
2018-11-03T15:27:33.856Z,23.10
2018-11-03T15:30:01.483Z,19.47
2018-11-03T15:32:29.076Z,19.43
2018-11-03T15:34:56.762Z,16.83
2018-11-03T15:37:24.514Z,18.63
2018-11-03T15:39:52.198Z,17.57
2018-11-03T15:42:19.781Z,20.93
2018-11-03T15:44:47.351Z,18.57
2018-11-03T15:47:14.926Z,17.70
2018-11-03T15:49:42.570Z,19.50
2018-11-03T15:52:10.224Z,19.97
2018-11-03T15:54:37.838Z,22.50
2018-11-03T15:57:05.682Z,15.97
2018-11-03T15:59:33.320Z,18.63
2018-11-03T16:02:00.939Z,19.17
2018-11-03T16:04:28.511Z,18.50
2018-11-03T16:06:56.196Z,17.03
2018-11-03T16:09:23.850Z,15.93
2018-11-03T16:11:51.504Z,18.00
2018-11-03T16:14:19.211Z,20.53
2018-11-03T16:16:46.838Z,19.50
2018-11-03T16:19:14.436Z,21.67
2018-11-03T16:21:42.089Z,19.47
2018-11-03T16:24:10.165Z,20.33
2018-11-03T16:26:37.836Z,29.47
2018-11-03T16:29:05.414Z,18.60
2018-11-03T16:31:32.977Z,22.77
2018-11-03T16:34:00.576Z,21.63
2018-11-03T16:36:28.190Z,22.67
2018-11-03T16:38:55.824Z,19.00
2018-11-03T16:41:23.438Z,18.40
2018-11-03T16:43:51.041Z,20.03
2018-11-03T16:46:18.722Z,21.77
2018-11-03T16:48:46.248Z,22.43
2018-11-03T16:51:13.782Z,19.70
2018-11-03T16:53:41.422Z,20.60
2018-11-03T16:56:09.031Z,21.00
2018-11-03T16:58:36.729Z,25.10
2018-11-03T17:01:04.365Z,22.70
2018-11-03T17:03:31.919Z,23.07
2018-11-03T17:05:59.517Z,24.43
2018-11-03T17:08:27.071Z,22.93
2018-11-03T17:10:54.653Z,23.63
2018-11-03T17:13:22.184Z,24.17
2018-11-03T17:15:49.766Z,19.87
2018-11-03T17:18:17.337Z,22.20
2018-11-03T17:20:44.906Z,24.07
2018-11-03T17:23:12.512Z,23.40
2018-11-03T17:25:40.068Z,21.57
2018-11-03T17:28:07.619Z,24.73
2018-11-03T17:30:35.204Z,25.83
2018-11-03T17:33:02.885Z,23.00
2018-11-03T17:35:30.402Z,23.70
2018-11-03T17:37:57.983Z,25.47
2018-11-03T17:40:25.594Z,23.37
2018-11-03T17:42:53.249Z,22.73
2018-11-03T17:45:20.829Z,23.77
2018-11-03T17:47:48.446Z,24.00
2018-11-03T17:50:16.073Z,24.33
2018-11-03T17:52:43.715Z,25.37
2018-11-03T17:55:11.460Z,23.43
2018-11-03T17:57:39.056Z,26.00
2018-11-03T18:00:12.089Z,28.23
2018-11-03T18:02:39.565Z,23.43
2018-11-03T18:05:07.307Z,20.80
2018-11-03T18:07:34.885Z,23.07
2018-11-03T18:10:02.481Z,24.53
2018-11-03T18:12:30.046Z,26.47
2018-11-03T18:14:57.659Z,26.33
2018-11-03T18:17:25.296Z,24.10
2018-11-03T18:19:52.898Z,22.87
2018-11-03T18:22:20.425Z,22.13
2018-11-03T18:24:47.984Z,23.53
2018-11-03T18:27:15.578Z,23.70
2018-11-03T18:29:43.242Z,20.70
2018-11-03T18:32:10.849Z,25.33
2018-11-03T18:34:38.514Z,22.67
2018-11-03T18:37:05.984Z,27.07
2018-11-03T18:39:33.611Z,22.67
2018-11-03T18:42:01.205Z,25.43
2018-11-03T18:44:28.736Z,25.37
2018-11-03T18:46:56.341Z,25.73
2018-11-03T18:49:23.991Z,24.23
2018-11-03T18:51:51.603Z,25.87
2018-11-03T18:54:19.166Z,22.10
2018-11-03T18:56:46.724Z,25.57
2018-11-03T18:59:14.261Z,24.60
2018-11-03T19:01:41.865Z,30.10
2018-11-03T19:04:09.403Z,24.07
2018-11-03T19:06:36.992Z,28.57
2018-11-03T19:09:06.160Z,48.37
2018-11-03T19:11:33.664Z,33.30
2018-11-03T19:14:01.316Z,32.20
2018-11-03T19:16:28.985Z,23.80
2018-11-03T19:18:56.538Z,25.97
2018-11-03T19:21:24.165Z,23.30
2018-11-03T19:23:51.731Z,22.53
2018-11-03T19:26:19.302Z,32.87
2018-11-03T19:28:46.857Z,35.60
2018-11-03T19:31:14.596Z,31.33
2018-11-03T19:33:42.182Z,29.47
2018-11-03T19:36:09.771Z,26.40
2018-11-03T19:38:37.376Z,26.50
2018-11-03T19:41:04.938Z,29.00
2018-11-03T19:43:32.484Z,58.30
2018-11-03T19:46:00.097Z,54.17
2018-11-03T19:48:27.715Z,55.90
2018-11-03T19:50:55.414Z,60.83
2018-11-03T19:53:22.960Z,42.07
2018-11-03T19:55:50.604Z,33.07
2018-11-03T19:58:18.195Z,24.43
2018-11-03T20:00:45.795Z,29.53
2018-11-03T20:03:13.427Z,28.70
2018-11-03T20:05:40.929Z,32.57
2018-11-03T20:08:08.530Z,30.63
2018-11-03T20:10:36.112Z,33.57
2018-11-03T20:13:03.698Z,37.27
2018-11-03T20:15:31.263Z,26.33
2018-11-03T20:17:58.901Z,35.53
2018-11-03T20:20:26.480Z,29.10
2018-11-03T20:22:54.073Z,25.20
2018-11-03T20:25:21.605Z,29.20
2018-11-03T20:27:49.282Z,27.83
2018-11-03T20:30:16.944Z,30.90
2018-11-03T20:32:45.512Z,25.63
2018-11-03T20:35:13.358Z,31.77
2018-11-03T20:37:40.982Z,25.10
2018-11-03T20:40:09.836Z,28.03
2018-11-03T20:42:37.480Z,25.80
2018-11-03T20:45:06.150Z,35.60
2018-11-03T20:47:34.073Z,27.13
2018-11-03T20:50:01.649Z,31.93
2018-11-03T20:52:29.312Z,24.97
2018-11-03T20:54:56.968Z,27.40
2018-11-03T20:57:24.718Z,28.10
2018-11-03T20:59:52.257Z,27.87
2018-11-03T21:02:20.027Z,24.30
2018-11-03T21:04:47.711Z,27.47
2018-11-03T21:07:15.320Z,25.23
2018-11-03T21:09:43.072Z,28.10
2018-11-03T21:12:10.995Z,27.87
2018-11-03T21:14:38.636Z,26.07
2018-11-03T21:17:06.227Z,25.83
2018-11-03T21:19:33.924Z,27.83
2018-11-03T21:22:01.817Z,34.27
2018-11-03T21:24:29.474Z,28.70
2018-11-03T21:26:57.091Z,29.07
2018-11-03T21:29:24.730Z,27.97
2018-11-03T21:31:52.476Z,31.07
2018-11-03T21:34:19.961Z,29.50
2018-11-03T21:36:47.778Z,32.10
2018-11-03T21:39:15.446Z,29.97
2018-11-03T21:41:43.142Z,25.70
2018-11-03T21:44:10.765Z,30.23
2018-11-03T21:46:38.439Z,25.07
2018-11-03T21:49:05.992Z,28.73
2018-11-03T21:51:33.886Z,29.13
2018-11-03T21:54:01.456Z,28.93
2018-11-03T21:56:29.000Z,27.40
2018-11-03T21:58:56.568Z,27.43
2018-11-03T22:01:24.221Z,27.10
2018-11-03T22:03:51.816Z,30.27
2018-11-03T22:06:19.686Z,36.90
2018-11-03T22:08:47.239Z,29.10
2018-11-03T22:11:14.984Z,29.03
2018-11-03T22:13:42.539Z,28.17
2018-11-03T22:16:10.389Z,28.13
2018-11-03T22:18:37.969Z,27.60
2018-11-03T22:21:05.709Z,27.47
2018-11-03T22:23:33.300Z,27.57
2018-11-03T22:26:07.742Z,27.50
2018-11-03T22:28:35.472Z,27.73
2018-11-03T22:31:03.266Z,26.53
2018-11-03T22:33:30.836Z,25.93
2018-11-03T22:35:58.428Z,27.70
2018-11-03T22:38:25.998Z,25.70
2018-11-03T22:40:53.626Z,27.67
2018-11-03T22:43:21.196Z,26.40
2018-11-03T22:45:48.919Z,28.27
2018-11-03T22:48:16.466Z,34.90
2018-11-03T22:50:44.783Z,39.07
2018-11-03T22:53:12.536Z,37.23
2018-11-03T22:55:40.072Z,36.37
2018-11-03T22:58:07.808Z,33.57
2018-11-03T23:00:40.089Z,31.60
2018-11-03T23:03:07.813Z,36.27
2018-11-03T23:05:35.413Z,34.90
2018-11-03T23:08:03.060Z,32.40
2018-11-03T23:10:30.726Z,32.90
2018-11-03T23:12:58.392Z,62.30
2018-11-03T23:15:25.921Z,71.40
2018-11-03T23:17:53.534Z,66.23
2018-11-03T23:20:21.124Z,62.17
2018-11-03T23:22:48.706Z,52.63
2018-11-03T23:25:16.361Z,50.17
2018-11-03T23:27:43.997Z,43.47
2018-11-03T23:30:12.361Z,41.30
2018-11-03T23:32:39.898Z,33.83
2018-11-03T23:35:09.768Z,34.10
2018-11-03T23:37:37.333Z,33.47
2018-11-03T23:40:05.815Z,25.93
2018-11-03T23:42:33.453Z,28.03
2018-11-03T23:45:01.064Z,27.50
2018-11-03T23:47:28.633Z,27.90
2018-11-03T23:49:56.227Z,32.47
2018-11-03T23:52:29.588Z,29.27
2018-11-03T23:54:57.124Z,28.43
2018-11-03T23:57:24.740Z,30.77
2018-11-03T23:59:52.793Z,24.87
